関西国際空港の過去48時間の天気

関西国際空港 (Kansai intl)

現在時刻: 9/25 15:38 JST (9/25 06:38 UTC) 以下の時間は現地時間です。

過去48時間のMETAR気象情報
時間 風向 風速(m/s) 視程 気温(℃) 湿度(%) 気圧(hPa) 天気現象
25 15:07 北北東 8 4000m 22 94 1002 弱いしゅう雨 もや
25 15:00 北北東 8 6000m 22 94 1002 弱いしゅう雨 もや
25 14:30 北北東 9 6000m 22 94 1002 弱いしゅう雨 もや
25 14:00 北東 6 10km以上 22 94 1002 弱いしゅう雨
25 13:30 北東 7 7000m 22 94 1002 弱いしゅう雨 もや
25 13:00 北北東 8 6000m 22 94 1003 弱いしゅう雨 もや
25 12:30 北北東 8 4500m 23 89 1003 弱いしゅう雨 もや
25 12:00 北東 8 10km以上 22 88 1003 弱いしゅう雨
25 11:30 東北東 10 10km以上 22 94 1002 周辺でしゅう雨
25 11:11 東北東 10 10km以上 22 94 1003 弱いしゅう雨
25 11:00 東北東 11 10km以上 21 100 1003 弱いしゅう雨
25 10:30 北東 11 10km以上 21 100 1003 弱いしゅう雨
25 10:00 北東 12 6000m 22 94 1004 弱いしゅう雨 もや
25 09:30 北北東 12 3500m 22 94 1003 しゅう雨 もや
25 09:17 北北東 11 3500m 22 94 1004 しゅう雨 もや
25 09:00 11 2500m 22 94 1004 強いしゅう雨 もや
25 08:30 13 2000m 22 94 1003 強いしゅう雨 もや
25 08:00 14 2000m 22 94 1003 強いしゅう雨 もや
25 07:30 北北東 14 2000m 22 94 1003 強いしゅう雨 もや
25 07:11 北北東 13 2000m 22 94 1004 強いしゅう雨 もや
25 07:00 北北東 13 2500m 22 94 1003 強いしゅう雨 もや
25 06:30 北北東 11 3500m 22 94 1004 強いしゅう雨 もや
25 06:10 北北東 10 3000m 22 94 1005 強いしゅう雨 もや
25 06:00 北北東 10 4500m 22 100 1004 しゅう雨 もや
25 05:50 北北東 10 9000m 22 100 1004 弱い雨
25 05:40 北北東 11 6000m 22 100 1004
25 05:30 北北東 9 3700m 23 94 1004 雨 もや
25 05:15 北東 8 7000m 22 94 1004
25 05:05 北東 7 5000m 22 94 1005 雨 もや
25 05:00 北東 7 6000m 22 94 1005
25 04:48 北東 5 3900m 22 94 1005 雨 もや
25 04:35 東北東 7 7000m 22 94 1005 弱い雨
25 04:30 北東 7 6000m 22 94 1005 弱い雨
25 04:18 東北東 4 4700m 22 100 1005 弱い雨 もや
25 04:00 北東 6 6000m 22 94 1005 弱い雨
25 03:39 北東 6 5000m 22 100 1005 弱い雨 もや
25 03:30 北東 5 7000m 22 100 1006 弱い雨
25 03:19 北北東 5 6000m 22 94 1006
25 03:08 北東 3 6000m 22 94 1006
25 03:00 北東 4 4900m 21 100 1006 弱い雨 もや
25 02:49 東北東 3 6000m 22 94 1007
25 02:30 北東 4 5000m 22 94 1007 弱い雨 もや
25 02:11 北北東 2 6000m 22 94 1007 弱い雨
25 02:06 北北東 2 5000m 22 94 1007 弱い雨 もや
25 02:00 北北東 2 6000m 22 94 1007 弱い雨
25 01:40 不定 1 7000m 22 94 1007 弱い雨
25 01:21 2 5000m 21 100 1008 弱い雨 もや
25 01:17 2 4900m 21 100 1008 弱い雨 もや
25 01:00 不定 1 10km以上 21 94 1008 弱い雨
25 00:37 北北西 3 7000m 22 94 1008 弱い雨
25 00:30 北北西 4 6000m 22 94 1008 弱い雨
25 00:26 北西 4 6000m 22 94 1008 弱い雨
25 00:05 西北西 3 6000m 22 94 1009 弱い雨
24 23:37 西北西 4 6000m 22 83 1009
24 23:00 西北西 4 10km以上 23 83 1009 弱い雨
24 22:30 西北西 4 10km以上 24 78 1009 弱い雨
24 22:00 西北西 3 10km以上 24 78 1009 弱い雨
24 21:30 2 10km以上 24 78 1009 弱い雨
24 21:00 北北東 1 10km以上 25 74 1009 弱い雨
24 20:30 不定 1 10km以上 25 78 1009 弱い雨
24 20:00 不定 1 10km以上 25 78 1009 弱い雨
24 19:30 北西 3 10km以上 25 78 1009
24 19:00 北西 3 10km以上 25 78 1009
24 18:30 西北西 3 10km以上 25 78 1009
24 18:00 西 3 10km以上 25 74 1009
24 17:30 西北西 4 10km以上 25 78 1009
24 17:00 西 2 10km以上 25 74 1009
24 16:30 西南西 2 10km以上 25 74 1009
24 16:00 南西 2 10km以上 25 74 1009
24 15:30 南西 2 10km以上 25 74 1009
24 15:00 西南西 2 10km以上 25 74 1009
24 14:30 西 2 10km以上 25 74 1009
24 14:00 不定 1 10km以上 25 74 1009
24 13:30 西 2 10km以上 25 78 1010
24 13:00 西北西 2 10km以上 25 78 1010 弱い雨
24 12:30 西 2 10km以上 24 78 1010 弱い雨
24 12:00 西北西 4 10km以上 25 74 1010
24 11:30 西北西 3 10km以上 25 74 1010
24 11:00 北西 2 10km以上 25 74 1010
24 10:30 西北西 2 10km以上 25 74 1010
24 10:00 不定 1 10km以上 25 69 1011
24 09:30 不定 1 10km以上 25 74 1011
24 09:00 不定 1 10km以上 24 74 1011
24 08:30 2 10km以上 24 78 1011
24 08:00 北北西 4 10km以上 24 78 1011
24 07:30 北西 4 10km以上 24 78 1011 弱い雨
24 07:00 北西 4 10km以上 24 78 1011 弱い雨
24 06:30 静穏 0 10km以上 23 78 1011 弱い雨
24 06:00 1 10km以上 23 73 1011
24 05:30 東北東 1 10km以上 23 73 1011
24 05:00 3 10km以上 23 73 1010
24 04:30 2 10km以上 23 73 1010
24 04:00 東北東 2 10km以上 23 78 1010
24 03:30 東北東 3 10km以上 23 78 1010
24 03:00 3 10km以上 24 74 1010
24 02:30 3 10km以上 24 74 1010
24 02:00 東北東 4 10km以上 23 78 1011
24 01:30 北東 5 10km以上 24 74 1011
24 01:00 北東 5 10km以上 24 74 1011
24 00:30 北東 6 10km以上 24 74 1011
24 00:00 北東 7 10km以上 24 74 1011
23 23:30 北東 7 10km以上 24 74 1011
23 23:00 東北東 7 10km以上 24 69 1011
23 22:30 東北東 7 10km以上 24 69 1011
23 22:00 北東 7 10km以上 24 74 1011
23 21:30 北東 7 10km以上 24 69 1011
23 21:00 北東 8 10km以上 25 65 1011
23 20:30 北東 8 10km以上 25 69 1011
23 20:00 北東 9 10km以上 25 69 1011
23 19:30 北北東 8 10km以上 25 69 1011
23 19:00 北北東 8 10km以上 26 65 1010
23 18:30 5 10km以上 26 70 1010
23 18:00 6 10km以上 26 70 1010
23 17:30 6 10km以上 26 74 1010
23 17:00 北北西 6 10km以上 26 74 1010
23 16:30 6 10km以上 26 74 1009
23 16:00 5 10km以上 27 70 1009
RJBB 250607Z 03015KT 4000 -SHRA BR FEW003 BKN008 BKN025 22/21 Q1002 RMK 1ST003 5ST008 6CU025 A2961
RJBB 250600Z 03015KT 6000 -SHRA BR FEW003 BKN008 BKN025 22/21 Q1002 TEMPO 4000 SHRA BR
RJBB 250530Z 03017KT 6000 -SHRA BR FEW003 BKN008 BKN025 22/21 Q1002 TEMPO 4000 SHRA BR
RJBB 250500Z 05011KT 9999 -SHRA FEW003 SCT025 BKN045 22/21 Q1002 TEMPO 4000 SHRA BR FEW002 SCT005 BKN008
RJBB 250430Z 04013KT 7000 -SHRA BR FEW003 BKN025 BKN045 22/21 Q1002 TEMPO 4000 SHRA BR FEW002 SCT005 BKN008
RJBB 250400Z 02016KT 6000 -SHRA BR FEW003 BKN025 BKN045 22/21 Q1003 TEMPO 4000 SHRA BR FEW002 SCT005 BKN008
RJBB 250330Z 03016KT 4500 -SHRA BR FEW003 BKN025 BKN045 23/21 Q1003 TEMPO SHRA FEW002 SCT005 BKN008
RJBB 250300Z 05015KT 9999 -SHRA FEW003 SCT025 BKN080 22/20 Q1003 TEMPO 3000 SHRA BR FEW002 SCT005 BKN008
RJBB 250230Z 06019KT 9999 VCSH FEW003 SCT025 BKN040 22/21 Q1002 TEMPO 3000 SHRA BR FEW002 SCT005 BKN008
RJBB 250211Z 06020KT 9999 -SHRA FEW003 SCT008 BKN030 22/21 Q1003 RMK 1ST003 3ST008 7CU030 A2962
RJBB 250200Z 06022KT 9999 -SHRA FEW003 BKN008 BKN030 21/21 Q1003 TEMPO 3000 SHRA BR
RJBB 250130Z 05022KT 9999 -SHRA FEW003 SCT008 BKN030 21/21 Q1003 TEMPO 3000 SHRA BR FEW002 SCT005 BKN008
RJBB 250100Z 04023KT 6000 -SHRA BR FEW003 SCT008 BKN030 22/21 Q1004 TEMPO 3000 SHRA BR FEW002 SCT005 BKN008
RJBB 250030Z 03023KT 3500 SHRA BR FEW003 SCT010 BKN020 22/21 Q1003 TEMPO 3000 SHRA BR FEW002 SCT005 BKN008
RJBB 250017Z 02022KT 3500 SHRA BR FEW005 SCT010 BKN020 FEW025CB 22/21 Q1004 RMK 1ST005 3CU010 5CU020 1CB025 A2966 CB S
RJBB 250000Z 36021KT 2500 +SHRA BR FEW005 SCT010 BKN020 FEW025CB 22/21 Q1004 TEMPO FEW002 SCT005 BKN008
RJBB 242330Z 36026KT 2000 +SHRA BR FEW005 SCT010 BKN020 FEW025CB 22/21 Q1003 TEMPO FEW002 SCT005 BKN008
RJBB 242300Z 01028KT 2000 +SHRA BR FEW002 SCT008 BKN015 FEW025CB 22/21 Q1003 TEMPO FEW002 SCT005 BKN008
RJBB 242230Z 03027KT 2000 +SHRA BR FEW002 SCT008 BKN015 FEW025CB 22/21 Q1003 TEMPO FEW002 SCT005 BKN008
RJBB 242211Z 03026KT 2000 +SHRA BR FEW002 SCT008 BKN015 FEW025CB 22/21 Q1004 RMK 1ST002 3ST008 5CU015 2CB025 A2965 CB 5KM SW MOV NE
RJBB 242200Z 03026KT 2500 +SHRA BR FEW002 SCT005 BKN008 FEW025CB 22/21 Q1003 NOSIG
RJBB 242130Z 03022KT 3500 +SHRA BR FEW002 SCT008 BKN012 FEW025CB 22/21 Q1004 TEMPO 3000 SHRA BR FEW002 SCT005 BKN008
RJBB 242110Z 03019KT 3000 +SHRA BR FEW002 SCT008 BKN012 FEW025CB 22/21 Q1005 RMK 1ST002 3ST008 5CU012 2CB025 A2968 CB 10KM SW AND 20KM NW MOV NE
RJBB 242100Z 02019KT 4500 SHRA BR FEW003 SCT008 BKN015 FEW025CB 22/22 Q1004 TEMPO 3000 SHRA BR FEW002 SCT005 BKN008
RJBB 242050Z AUTO 02020KT 9000 -RA FEW007 SCT010 BKN019 22/22 Q1004 RMK A2966
RJBB 242040Z AUTO 02021KT 6000 RA FEW005 SCT007 BKN011 //////TCU 22/22 Q1004 RMK A2966 RI004 TCU 25KM SW MOV UNKNOWN
RJBB 242030Z AUTO 03018KT 3700 RA BR SCT003 BKN006 BKN010 23/22 Q1004 TEMPO 3000 SHRA BR
RJBB 242015Z AUTO 04015KT 7000 RA FEW006 SCT010 BKN011 22/21 Q1004 RMK A2967 RI004
RJBB 242005Z AUTO 05013KT 5000 RA BR FEW006 SCT010 BKN038 22/21 Q1005 RMK A2968 RI004
RJBB 242000Z AUTO 05014KT 6000 RA FEW006 BKN008 BKN014 22/21 Q1005 TEMPO 4000 RA BR
RJBB 241948Z AUTO 05010KT 3900 RA BR FEW007 SCT039 BKN050 22/21 Q1005 RMK A2969 RI006
RJBB 241935Z AUTO 06013KT 7000 -RA FEW005 SCT010 BKN020 22/21 Q1005 RMK A2968
RJBB 241930Z AUTO 05013KT 030V090 6000 -RA FEW003 SCT007 BKN009 22/21 Q1005 TEMPO 4000 RA BR
RJBB 241918Z AUTO 07007KT 4700 -RA BR FEW003 SCT009 BKN023 22/22 Q1005 RMK A2969
RJBB 241900Z AUTO 05011KT 6000 -RA FEW003 BKN005 BKN007 22/21 Q1005 TEMPO 4000 RA BR
RJBB 241839Z AUTO 04011KT 5000 -RA BR BKN003 BKN007 OVC011 22/22 Q1005 RMK A2970
RJBB 241830Z AUTO 04010KT 7000 -RA FEW003 BKN005 BKN007 22/22 Q1006 TEMPO 4000 RA BR
RJBB 241819Z AUTO 03010KT 6000 RA FEW003 BKN005 OVC007 22/21 Q1006 RMK A2971 RI004
RJBB 241808Z AUTO 05006KT 6000 RA BKN003 OVC100 22/21 Q1006 RMK A2972 RI003
RJBB 241800Z AUTO 04008KT 4900 -RA BR BKN003 BKN007 OVC100 21/21 Q1006 TEMPO RA BR
RJBB 241749Z AUTO 06005KT 030V090 6000 RA BKN003 BKN007 BKN009 22/21 Q1007 RMK A2974 RI003
RJBB 241730Z AUTO 05007KT 020V080 5000 -RA BR FEW005 BKN007 BKN009 22/21 Q1007 TEMPO 4000 RA BR
RJBB 241711Z AUTO 02004KT 6000 -RA SCT005 BKN007 BKN010 22/21 Q1007 RMK A2976
RJBB 241706Z AUTO 02004KT 360V060 5000 -RA BR BKN005 BKN007 OVC021 22/21 Q1007 RMK A2975
RJBB 241700Z AUTO 03003KT 360V060 6000 -RA SCT005 BKN007 BKN009 22/21 Q1007 TEMPO 4000 RA BR
RJBB 241640Z AUTO VRB01KT 7000 -RA FEW003 BKN005 BKN007 22/21 Q1007 RMK A2976
RJBB 241621Z AUTO 08003KT 030V100 5000 -RA BR SCT003 BKN005 BKN007 21/21 Q1008 RMK A2977
RJBB 241617Z AUTO 09003KT 030V100 4900 -RA BR SCT005 BKN007 BKN010 21/21 Q1008 RMK A2977
RJBB 241600Z AUTO VRB01KT 9999 -RA FEW010 SCT013 BKN014 21/20 Q1008 TEMPO 4000 RA BR FEW002 SCT005 BKN008
RJBB 241537Z AUTO 33006KT 290V010 7000 -RA FEW005 SCT015 BKN020 22/21 Q1008 RMK A2978
RJBB 241530Z AUTO 33007KT 300V010 6000 -RA SCT005 SCT007 BKN010 22/21 Q1008 TEMPO 4000 RA BR
RJBB 241526Z AUTO 32007KT 270V360 6000 -RA BKN005 BKN010 OVC030 22/21 Q1008 RMK A2979
RJBB 241505Z AUTO 29006KT 6000 -RA FEW005 BKN011 BKN028 22/21 Q1009 RMK A2979
RJBB 241437Z AUTO 30007KT 290V360 6000 RA SCT040 BKN044 BKN046 22/19 Q1009 RMK A2980 RI003
RJBB 241400Z AUTO 29007KT 9999 -RA FEW038 SCT049 OVC050 23/20 Q1009 NOSIG
RJBB 241330Z 29008KT 9999 -RA FEW015 SCT035 BKN045 24/20 Q1009 NOSIG
RJBB 241300Z 30006KT 9999 -RA FEW020 SCT040 BKN050 24/20 Q1009 NOSIG
RJBB 241230Z 01003KT 9999 -RA FEW020 SCT040 BKN060 24/20 Q1009 NOSIG
RJBB 241200Z 03002KT 9999 -RA FEW020 SCT050 BKN070 25/20 Q1009 NOSIG
RJBB 241130Z VRB01KT 9999 -RA FEW025 SCT060 BKN070 25/21 Q1009 NOSIG
RJBB 241100Z VRB01KT 9999 -RA FEW025 SCT060 BKN070 25/21 Q1009 NOSIG
RJBB 241030Z 31006KT 9999 FEW025 SCT060 BKN070 25/21 Q1009 NOSIG
RJBB 241000Z 31005KT 9999 FEW025 SCT060 BKN070 25/21 Q1009 NOSIG
RJBB 240930Z 30005KT 9999 FEW025 SCT060 BKN080 25/21 Q1009 NOSIG
RJBB 240900Z 28006KT 9999 FEW025 SCT060 BKN080 25/20 Q1009 NOSIG
RJBB 240830Z 29007KT 9999 FEW025 SCT060 BKN080 25/21 Q1009 NOSIG
RJBB 240800Z 26003KT 9999 FEW025 BKN080 BKN/// 25/20 Q1009 NOSIG
RJBB 240730Z 24003KT 200V270 9999 FEW025 BKN080 BKN/// 25/20 Q1009 NOSIG
RJBB 240700Z 23003KT 9999 FEW025 BKN080 BKN110 25/20 Q1009 NOSIG
RJBB 240630Z 22003KT 190V260 9999 FEW025 BKN080 25/20 Q1009 NOSIG
RJBB 240600Z 24003KT 200V270 9999 FEW020 BKN080 BKN100 25/20 Q1009 NOSIG
RJBB 240530Z 27003KT 9999 FEW020 SCT080 BKN100 25/20 Q1009 NOSIG
RJBB 240500Z VRB02KT 9999 FEW025 BKN110 BKN/// 25/20 Q1009 NOSIG
RJBB 240430Z 26004KT 9999 FEW025 SCT080 BKN090 25/21 Q1010 NOSIG
RJBB 240400Z 29004KT 230V320 9999 -RA FEW025 SCT060 BKN090 25/21 Q1010 NOSIG
RJBB 240330Z 28003KT 9999 -RA FEW025 SCT060 BKN090 24/20 Q1010 NOSIG
RJBB 240300Z 29007KT 9999 FEW025 BKN100 25/20 Q1010 NOSIG
RJBB 240230Z 30006KT 260V340 9999 FEW025 SCT100 BKN140 25/20 Q1010 NOSIG
RJBB 240200Z 31004KT 280V350 9999 FEW025 SCT100 BKN140 25/20 Q1010 NOSIG
RJBB 240130Z 30003KT 260V340 9999 FEW025 SCT100 BKN140 25/20 Q1010 NOSIG
RJBB 240100Z VRB02KT 9999 FEW025 SCT100 BKN140 25/19 Q1011 NOSIG
RJBB 240030Z VRB02KT 9999 FEW020 SCT100 BKN140 25/20 Q1011 NOSIG
RJBB 240000Z VRB02KT 9999 FEW020 SCT100 BKN140 24/19 Q1011 NOSIG
RJBB 232330Z 36003KT 9999 FEW020 SCT100 BKN140 24/20 Q1011 NOSIG
RJBB 232300Z 34007KT 300V030 9999 FEW020 SCT070 BKN120 24/20 Q1011 BECMG 31004KT
RJBB 232230Z 32007KT 9999 -RA FEW020 SCT060 BKN120 24/20 Q1011 BECMG 31004KT
RJBB 232200Z 32008KT 9999 -RA FEW020 SCT060 BKN120 24/20 Q1011 BECMG 31004KT
RJBB 232130Z 00000KT 9999 -RA FEW020 SCT060 BKN120 23/19 Q1011 NOSIG
RJBB 232100Z 08002KT 9999 FEW020 SCT070 BKN150 23/18 Q1011 NOSIG
RJBB 232030Z AUTO 07001KT 9999 NSC 23/18 Q1011 NOSIG
RJBB 232000Z AUTO 10005KT 060V160 9999 NSC 23/18 Q1010 NOSIG
RJBB 231930Z AUTO 09003KT 9999 NSC 23/18 Q1010 NOSIG
RJBB 231900Z AUTO 07003KT 9999 NSC 23/19 Q1010 NOSIG
RJBB 231830Z AUTO 07006KT 9999 NSC 23/19 Q1010 NOSIG
RJBB 231800Z AUTO 09005KT 9999 NSC 24/19 Q1010 NOSIG
RJBB 231730Z AUTO 10005KT 9999 NSC 24/19 Q1010 NOSIG
RJBB 231700Z AUTO 06008KT 9999 NSC 23/19 Q1011 NOSIG
RJBB 231630Z AUTO 04009KT 9999 NSC 24/19 Q1011 NOSIG
RJBB 231600Z AUTO 05010KT 9999 NSC 24/19 Q1011 NOSIG
RJBB 231530Z AUTO 04012KT 9999 NSC 24/19 Q1011 NOSIG
RJBB 231500Z AUTO 05013KT 9999 NSC 24/19 Q1011 NOSIG
RJBB 231430Z AUTO 05013KT 9999 NSC 24/19 Q1011 NOSIG
RJBB 231400Z AUTO 06013KT 9999 NSC 24/18 Q1011 NOSIG
RJBB 231330Z 06013KT 9999 FEW030 BKN/// 24/18 Q1011 NOSIG
RJBB 231300Z 05013KT 9999 FEW030 BKN/// 24/19 Q1011 NOSIG
RJBB 231230Z 05013KT 9999 FEW030 SCT/// 24/18 Q1011 NOSIG
RJBB 231200Z 04015KT 9999 FEW030 BKN/// 25/18 Q1011 NOSIG
RJBB 231130Z 04016KT 9999 FEW030 BKN/// 25/19 Q1011 NOSIG
RJBB 231100Z 04018KT 9999 FEW030 SCT070 BKN/// 25/19 Q1011 NOSIG
RJBB 231030Z 03016KT 9999 FEW030 SCT070 BKN/// 25/19 Q1011 NOSIG
RJBB 231000Z 02015KT 9999 FEW030 SCT045 BKN080 26/19 Q1010 NOSIG
RJBB 230930Z 01010KT 9999 FEW030 SCT045 BKN080 26/20 Q1010 NOSIG
RJBB 230900Z 35011KT 9999 FEW030 SCT045 BKN070 26/20 Q1010 NOSIG
RJBB 230830Z 35011KT 9999 FEW030 SCT045 BKN070 26/21 Q1010 NOSIG
RJBB 230800Z 34011KT 9999 FEW030 SCT050 BKN070 26/21 Q1010 NOSIG
RJBB 230730Z 35011KT 9999 FEW030 SCT050 BKN070 26/21 Q1009 NOSIG
RJBB 230700Z 36009KT 9999 FEW030 SCT050 BKN070 27/21 Q1009 NOSIG